Time;durP1;ratioP1;P1;durP2;ratioP2;P2;SDS_P1;SDS_P2;PMS_P1;PMS_P2;Temp;Humidity;BMP_temperature;BMP_pressure;BME280_temperature;BME280_humidity;BME280_pressure;Samples;Min_cycle;Max_cycle;Signal;HPM_P1;HPM_P2
2023/04/07 00:00:54;;;;;;;5.03;4.53;;;;;;;10.59;66.48;100366.13;5019134;28;20397;-72
2023/04/07 00:03:20;;;;;;;6.37;5.07;;;;;;;10.55;66.99;100364.97;5014256;28;20792;-72
2023/04/07 00:05:46;;;;;;;6.20;4.80;;;;;;;10.53;67.07;100359.00;5027291;28;20412;-72
2023/04/07 00:08:11;;;;;;;4.50;4.10;;;;;;;10.49;67.36;100359.72;5021895;28;20394;-72
2023/04/07 00:10:36;;;;;;;7.07;4.80;;;;;;;10.43;67.54;100352.56;5032260;28;20473;-72
2023/04/07 00:13:02;;;;;;;6.73;5.07;;;;;;;10.33;67.88;100355.94;5015821;28;20397;-72
2023/04/07 00:15:27;;;;;;;5.00;4.50;;;;;;;10.38;67.92;100351.41;5016861;28;20388;-72
2023/04/07 00:17:52;;;;;;;4.77;4.07;;;;;;;10.41;67.70;100341.97;5024775;28;20983;-72
2023/04/07 00:20:17;;;;;;;4.40;4.00;;;;;;;10.46;67.66;100336.66;5012354;28;20420;-72
2023/04/07 00:22:43;;;;;;;4.38;3.80;;;;;;;10.48;67.44;100331.78;5016081;28;20857;-72
2023/04/07 00:25:08;;;;;;;4.43;3.83;;;;;;;10.48;67.39;100328.25;5018543;28;20397;-72
2023/04/07 00:27:34;;;;;;;4.32;3.92;;;;;;;10.46;67.41;100328.53;5024124;28;20410;-72
2023/04/07 00:29:59;;;;;;;5.40;4.25;;;;;;;10.43;67.21;100320.06;5021478;28;20749;-72
2023/04/07 00:32:24;;;;;;;4.67;3.60;;;;;;;10.37;67.65;100327.31;5026526;28;20870;-72
2023/04/07 00:34:50;;;;;;;6.70;4.70;;;;;;;10.26;67.44;100323.59;5029693;28;20399;-72
2023/04/07 00:37:15;;;;;;;4.90;4.07;;;;;;;10.25;67.68;100316.53;5041228;28;20407;-72
2023/04/07 00:39:40;;;;;;;4.55;4.15;;;;;;;10.26;67.65;100323.59;5012074;28;20741;-72
2023/04/07 00:42:06;;;;;;;4.90;4.40;;;;;;;10.21;67.73;100311.84;5025292;28;20437;-72
2023/04/07 00:44:32;;;;;;;4.32;3.92;;;;;;;10.19;67.81;100317.53;5016090;28;20776;-72
2023/04/07 00:46:58;;;;;;;4.60;4.13;;;;;;;10.21;67.99;100309.13;5042376;28;20448;-72
2023/04/07 00:49:27;;;;;;;4.32;3.83;;;;;;;10.21;67.56;100307.25;5018550;28;20408;-72
2023/04/07 00:51:52;;;;;;;5.10;4.50;;;;;;;10.23;67.79;100313.25;5012569;28;20388;-72
2023/04/07 00:54:18;;;;;;;4.60;4.20;;;;;;;10.23;67.73;100310.56;5012393;28;20389;-72
2023/04/07 00:56:43;;;;;;;4.28;3.80;;;;;;;10.19;67.81;100306.69;5027787;28;20447;-72
2023/04/07 00:59:09;;;;;;;5.70;3.80;;;;;;;10.17;67.53;100295.28;5019685;28;20415;-72
2023/04/07 01:01:49;;;;;;;4.93;4.10;;;;;;;10.17;68.03;100300.72;5027063;28;20397;-72
2023/04/07 01:04:32;;;;;;;4.10;3.70;;;;;;;10.12;67.91;100286.22;5024366;28;20415;-72
2023/04/07 01:07:04;;;;;;;4.47;3.67;;;;;;;10.06;68.09;100285.31;5019141;28;20392;-72
2023/04/07 01:09:37;;;;;;;7.90;4.30;;;;;;;10.05;68.33;100288.25;5032934;28;20412;-72
2023/04/07 01:12:23;;;;;;;4.22;3.75;;;;;;;10.02;68.12;100270.63;5035019;28;20391;-72
2023/04/07 01:14:57;;;;;;;4.68;3.58;;;;;;;10.04;68.13;100267.69;5021885;28;20747;-72
2023/04/07 01:17:24;;;;;;;4.97;3.42;;;;;;;10.03;67.91;100269.56;5023663;28;20408;-72
2023/04/07 01:19:58;;;;;;;5.53;3.55;;;;;;;10.02;68.39;100262.50;5031798;28;20967;-72
2023/04/07 01:22:31;;;;;;;3.53;3.22;;;;;;;10.01;68.14;100277.09;5020526;28;20395;-72
2023/04/07 01:25:15;;;;;;;3.88;3.53;;;;;;;9.99;68.25;100265.72;5034079;28;20402;-72
2023/04/07 01:28:10;;;;;;;3.65;3.33;;;;;;;9.99;68.10;100263.00;5034641;28;20389;-72
2023/04/07 01:30:40;;;;;;;3.63;3.33;;;;;;;9.99;68.75;100264.88;5023279;28;20482;-72
2023/04/07 01:33:07;;;;;;;15.48;6.45;;;;;;;10.07;68.41;100268.03;5023348;28;20400;-72
2023/04/07 01:35:34;;;;;;;59.63;19.50;;;;;;;9.99;68.56;100257.59;5031356;28;20405;-72
2023/04/07 01:38:01;;;;;;;100.95;29.70;;;;;;;10.00;68.62;100263.81;5028801;28;20403;-72
2023/04/07 01:40:28;;;;;;;40.63;15.00;;;;;;;9.98;69.08;100258.63;5026296;28;20428;-72
2023/04/07 01:42:56;;;;;;;17.77;8.25;;;;;;;9.96;68.95;100255.38;5015976;28;20819;-72
2023/04/07 01:45:22;;;;;;;8.67;5.67;;;;;;;9.95;68.67;100261.00;5015307;28;20401;-72
2023/04/07 01:47:49;;;;;;;6.30;4.75;;;;;;;9.96;68.60;100262.66;5031369;28;20411;-72
2023/04/07 01:50:15;;;;;;;6.05;4.10;;;;;;;9.97;68.80;100250.78;5022658;28;20813;-72
2023/04/07 01:52:41;;;;;;;5.28;3.80;;;;;;;9.98;68.78;100260.56;5027735;28;20763;-72
2023/04/07 01:55:08;;;;;;;6.13;4.20;;;;;;;9.98;69.08;100261.34;5018901;28;20409;-72
2023/04/07 01:57:33;;;;;;;5.10;3.35;;;;;;;9.97;69.03;100251.59;5033939;28;20402;-72
2023/04/07 01:59:59;;;;;;;6.00;4.67;;;;;;;9.96;69.38;100260.78;5028688;28;20413;-72
2023/04/07 02:02:24;;;;;;;13.37;6.37;;;;;;;9.91;69.20;100250.69;5015183;28;20389;-73
2023/04/07 02:04:53;;;;;;;126.43;37.53;;;;;;;9.91;69.28;100252.59;5041090;28;20397;-72
2023/04/07 02:07:37;;;;;;;135.80;41.93;;;;;;;9.96;68.87;100255.38;5015370;28;21027;-72
2023/04/07 02:10:06;;;;;;;99.63;30.23;;;;;;;9.98;68.75;100253.22;5039795;28;20749;-72
2023/04/07 02:12:32;;;;;;;146.23;40.87;;;;;;;10.00;69.07;100251.13;5014553;28;20476;-72
2023/04/07 02:14:57;;;;;;;161.57;43.80;;;;;;;9.99;68.78;100245.94;5030760;28;20403;-72
2023/04/07 02:17:25;;;;;;;30.85;12.13;;;;;;;9.92;69.01;100243.38;5015394;28;20382;-72
2023/04/07 02:19:52;;;;;;;7.65;5.35;;;;;;;9.87;69.33;100235.19;5022790;28;20440;-72
2023/04/07 02:22:18;;;;;;;40.00;12.07;;;;;;;9.83;69.48;100234.88;5032349;28;20399;-72
2023/04/07 02:24:43;;;;;;;108.25;26.38;;;;;;;9.81;69.46;100233.47;5031642;28;20899;-72
2023/04/07 02:27:08;;;;;;;113.20;29.07;;;;;;;9.80;69.35;100227.25;5030207;28;20467;-72
2023/04/07 02:29:34;;;;;;;147.50;35.00;;;;;;;9.85;69.41;100232.72;5021960;28;20398;-72
2023/04/07 02:31:59;;;;;;;161.27;40.20;;;;;;;9.88;68.99;100226.81;5023094;28;20946;-72
2023/04/07 02:34:24;;;;;;;161.43;39.80;;;;;;;9.87;69.35;100227.91;5028350;28;20505;-72
2023/04/07 02:36:50;;;;;;;67.53;20.13;;;;;;;9.88;69.57;100231.41;5021200;28;20885;-72
2023/04/07 02:39:15;;;;;;;28.83;10.50;;;;;;;9.87;69.38;100229.78;5014297;28;20420;-72
2023/04/07 02:41:41;;;;;;;13.40;6.17;;;;;;;9.88;69.11;100228.69;5024182;28;20874;-72
2023/04/07 02:44:06;;;;;;;11.30;5.77;;;;;;;9.85;69.35;100227.31;5020407;28;20728;-72
2023/04/07 02:46:31;;;;;;;19.07;7.30;;;;;;;9.85;69.63;100223.78;5030458;28;20441;-72
2023/04/07 02:48:56;;;;;;;14.97;5.77;;;;;;;9.85;69.67;100229.19;5019300;28;20735;-72
2023/04/07 02:51:22;;;;;;;9.47;5.30;;;;;;;9.86;69.49;100226.25;5028071;28;20738;-72
2023/04/07 02:53:47;;;;;;;6.40;4.30;;;;;;;9.85;69.13;100221.91;5026583;28;20406;-72
2023/04/07 02:56:12;;;;;;;6.83;4.43;;;;;;;9.87;69.48;100217.06;5017282;28;20439;-72
2023/04/07 02:58:38;;;;;;;10.10;5.03;;;;;;;9.88;69.19;100229.53;5031784;28;20837;-72
2023/04/07 03:01:04;;;;;;;53.97;14.43;;;;;;;9.87;69.01;100219.78;5045844;28;20396;-72
2023/04/07 03:03:29;;;;;;;85.05;25.30;;;;;;;9.88;69.09;100218.69;5022246;28;21038;-72
2023/04/07 03:05:54;;;;;;;34.73;11.20;;;;;;;9.89;69.40;100223.06;5013981;28;20407;-72
2023/04/07 03:08:20;;;;;;;24.63;9.03;;;;;;;9.91;69.20;100225.53;5028816;28;20742;-72
2023/04/07 03:10:45;;;;;;;16.97;7.37;;;;;;;9.89;69.03;100222.22;5020119;28;20399;-72
2023/04/07 03:13:15;;;;;;;71.07;18.73;;;;;;;9.78;68.99;100215.81;5031333;28;20414;-73
2023/04/07 03:15:40;;;;;;;27.70;10.80;;;;;;;9.75;69.90;100215.50;5028177;28;20496;-72
2023/04/07 03:18:05;;;;;;;13.70;11.97;;;;;;;9.75;69.60;100218.19;5032481;28;20903;-72
2023/04/07 03:20:31;;;;;;;7.28;6.60;;;;;;;9.77;69.61;100216.09;5027569;28;20403;-72
2023/04/07 03:22:56;;;;;;;10.52;7.43;;;;;;;9.70;69.46;100208.13;5023199;28;20418;-72
2023/04/07 03:25:22;;;;;;;11.27;8.37;;;;;;;9.63;70.00;100209.34;5036419;28;20429;-72
2023/04/07 03:27:47;;;;;;;12.07;6.88;;;;;;;9.62;69.99;100197.69;5024377;28;20410;-73
2023/04/07 03:30:12;;;;;;;4.80;4.30;;;;;;;9.59;70.30;100190.06;5028290;28;20824;-72
2023/04/07 03:32:37;;;;;;;4.13;3.65;;;;;;;9.63;70.36;100195.81;5020973;28;20387;-72
2023/04/07 03:35:03;;;;;;;4.93;3.90;;;;;;;9.67;70.35;100194.25;5033065;28;20747;-72
2023/04/07 03:37:28;;;;;;;5.70;4.78;;;;;;;9.65;70.38;100188.28;5017119;28;20385;-72
2023/04/07 03:39:53;;;;;;;5.20;3.87;;;;;;;9.67;70.62;100180.72;5029071;28;20423;-72
2023/04/07 03:42:19;;;;;;;5.37;4.10;;;;;;;9.73;70.21;100185.97;5030256;28;20407;-72
2023/04/07 03:44:44;;;;;;;4.67;4.23;;;;;;;9.74;70.30;100187.63;5021904;28;20397;-72
2023/04/07 03:47:09;;;;;;;12.40;6.83;;;;;;;9.75;69.90;100191.97;5012998;28;20392;-72
2023/04/07 03:49:37;;;;;;;59.70;22.27;;;;;;;9.73;69.73;100199.50;5029508;28;20398;-72
2023/04/07 03:52:02;;;;;;;51.00;18.53;;;;;;;9.69;70.53;100208.34;5032709;28;20391;-72
2023/04/07 03:54:28;;;;;;;22.97;10.00;;;;;;;9.65;70.07;100199.09;5022618;28;20412;-72
2023/04/07 03:56:53;;;;;;;20.40;9.07;;;;;;;9.62;70.78;100199.56;5020191;28;20397;-72
2023/04/07 03:59:18;;;;;;;11.10;5.77;;;;;;;9.58;70.82;100199.25;5037581;28;20787;-72
2023/04/07 04:01:44;;;;;;;5.30;4.17;;;;;;;9.57;70.40;100203.03;5029846;28;20404;-72
2023/04/07 04:04:09;;;;;;;6.00;4.20;;;;;;;9.58;70.49;100195.75;5017336;28;20407;-72
2023/04/07 04:06:34;;;;;;;5.20;4.03;;;;;;;9.59;70.48;100190.06;5025031;28;20409;-72
2023/04/07 04:09:00;;;;;;;6.93;4.07;;;;;;;9.59;70.80;100190.06;5023320;28;20387;-72
2023/04/07 04:11:26;;;;;;;4.70;4.07;;;;;;;9.63;70.52;100195.81;5028176;28;20397;-72
2023/04/07 04:13:51;;;;;;;5.45;4.07;;;;;;;9.59;70.79;100192.78;5011333;28;20888;-72
2023/04/07 04:16:16;;;;;;;4.80;4.40;;;;;;;9.51;71.12;100190.47;5023391;28;20448;-72
2023/04/07 04:18:41;;;;;;;4.40;4.00;;;;;;;9.50;71.18;100193.41;5024047;28;20461;-72
2023/04/07 04:21:07;;;;;;;4.63;4.05;;;;;;;9.49;71.52;100189.88;5013261;28;20432;-72
2023/04/07 04:23:32;;;;;;;4.88;4.32;;;;;;;9.48;71.62;100195.56;5015527;28;20466;-72
2023/04/07 04:25:59;;;;;;;4.10;3.80;;;;;;;9.49;71.24;100194.47;5019243;28;20458;-72
2023/04/07 04:28:24;;;;;;;4.77;4.30;;;;;;;9.51;71.33;100198.59;5025289;28;20506;-72
2023/04/07 04:30:49;;;;;;;4.70;4.23;;;;;;;9.48;71.41;100196.38;5032229;28;20400;-72
2023/04/07 04:33:15;;;;;;;4.33;3.93;;;;;;;9.45;71.77;100202.25;5024871;28;20401;-72
2023/04/07 04:35:40;;;;;;;4.27;3.90;;;;;;;9.51;71.82;100204.00;5012254;28;20420;-72
2023/04/07 04:38:06;;;;;;;4.10;3.70;;;;;;;9.56;71.40;100200.56;5025179;28;20882;-72
2023/04/07 04:40:31;;;;;;;5.47;4.10;;;;;;;9.57;71.40;100202.22;5025496;28;20466;-72
2023/04/07 04:42:56;;;;;;;4.43;4.00;;;;;;;9.57;71.13;100203.03;5032420;28;20490;-72
2023/04/07 04:45:21;;;;;;;4.73;3.47;;;;;;;9.61;71.11;100212.31;5023559;28;20486;-72
2023/04/07 04:47:47;;;;;;;4.47;4.00;;;;;;;9.59;71.25;100208.19;5012020;28;20953;-72
2023/04/07 04:50:12;;;;;;;4.17;3.87;;;;;;;9.59;71.14;100203.59;5029533;28;20395;-72
2023/04/07 04:52:38;;;;;;;3.50;3.30;;;;;;;9.53;71.81;100206.47;5012505;28;20404;-72
2023/04/07 04:55:03;;;;;;;5.75;3.88;;;;;;;9.54;71.68;100202.69;5012257;28;20443;-72
2023/04/07 04:57:29;;;;;;;4.28;3.88;;;;;;;9.59;71.54;100209.00;5022674;28;20391;-72
2023/04/07 04:59:54;;;;;;;4.97;3.77;;;;;;;9.62;71.22;100199.56;5027116;28;20416;-72
2023/04/07 05:02:19;;;;;;;4.10;3.70;;;;;;;9.62;71.32;100202.28;5027915;28;20489;-72
2023/04/07 05:04:45;;;;;;;3.93;3.60;;;;;;;9.60;71.66;100209.81;5017923;28;20403;-72
2023/04/07 05:07:10;;;;;;;3.63;3.33;;;;;;;9.52;71.73;100204.81;5023161;28;20396;-72
2023/04/07 05:09:35;;;;;;;4.00;3.60;;;;;;;9.45;72.13;100204.97;5019972;28;20425;-72
2023/04/07 05:12:01;;;;;;;4.27;3.87;;;;;;;9.24;73.14;100206.50;5029396;28;20403;-72
2023/04/07 05:14:26;;;;;;;5.75;3.78;;;;;;;9.10;73.85;100221.34;5016326;28;20418;-72
2023/04/07 05:16:53;;;;;;;5.40;4.53;;;;;;;9.08;74.50;100215.38;5025521;28;20485;-72
2023/04/07 05:19:18;;;;;;;5.30;4.35;;;;;;;9.18;74.40;100212.06;5026755;28;20502;-72
2023/04/07 05:21:43;;;;;;;4.67;4.27;;;;;;;9.13;74.77;100210.06;5015017;28;20423;-72
2023/04/07 05:24:09;;;;;;;6.57;4.00;;;;;;;9.20;74.10;100209.91;5025540;28;20505;-72
2023/04/07 05:26:34;;;;;;;4.87;4.37;;;;;;;9.28;74.09;100207.66;5036953;28;20411;-72
2023/04/07 05:28:59;;;;;;;5.23;4.30;;;;;;;9.34;74.31;100203.16;5013406;28;20759;-72
2023/04/07 05:31:24;;;;;;;6.00;4.73;;;;;;;9.33;73.98;100202.34;5021512;28;20411;-73
2023/04/07 05:33:50;;;;;;;5.50;4.87;;;;;;;9.35;74.23;100199.41;5028850;28;20870;-72
2023/04/07 05:36:15;;;;;;;11.03;5.47;;;;;;;9.31;74.57;100209.06;5025342;28;20421;-72
2023/04/07 05:38:40;;;;;;;5.00;4.50;;;;;;;9.30;74.35;100215.50;5021456;28;20905;-72
2023/04/07 05:41:06;;;;;;;5.33;4.27;;;;;;;9.31;74.21;100209.06;5030093;28;20411;-73
2023/04/07 05:43:31;;;;;;;5.63;5.07;;;;;;;9.39;73.79;100208.66;5024884;28;20463;-72
2023/04/07 05:45:56;;;;;;;5.27;4.60;;;;;;;9.30;74.45;100208.22;5017867;28;20421;-72
2023/04/07 05:48:21;;;;;;;6.30;4.53;;;;;;;9.45;74.06;100212.28;5020451;28;20477;-72
2023/04/07 05:50:47;;;;;;;5.20;4.70;;;;;;;9.54;73.49;100213.53;5020892;28;20426;-72
2023/04/07 05:53:12;;;;;;;6.55;5.00;;;;;;;9.61;73.42;100209.59;5015087;28;20804;-72
2023/04/07 05:55:37;;;;;;;7.00;4.37;;;;;;;9.66;73.42;100209.66;5018333;28;20399;-72
2023/04/07 05:58:03;;;;;;;6.95;4.60;;;;;;;9.65;73.30;100208.03;5024014;28;20415;-72
2023/04/07 06:00:28;;;;;;;5.97;4.70;;;;;;;9.65;73.21;100204.53;5035482;28;20930;-72
2023/04/07 06:02:53;;;;;;;8.20;4.77;;;;;;;9.75;72.91;100207.38;5020070;28;20411;-72
2023/04/07 06:05:19;;;;;;;5.43;4.63;;;;;;;9.84;73.01;100217.56;5016038;28;20450;-72
2023/04/07 06:07:44;;;;;;;5.37;4.63;;;;;;;9.89;72.72;100217.63;5021233;28;20858;-72
2023/04/07 06:10:10;;;;;;;7.90;4.80;;;;;;;9.92;72.25;100219.03;5024528;28;20408;-72
2023/04/07 06:12:35;;;;;;;9.60;6.03;;;;;;;9.93;72.66;100217.16;5029398;28;20524;-72
2023/04/07 06:15:00;;;;;;;13.83;7.57;;;;;;;9.97;72.37;100215.59;5030752;28;20473;-72
2023/04/07 06:17:25;;;;;;;13.53;8.57;;;;;;;10.02;71.95;100221.91;5019866;28;20399;-72
2023/04/07 06:19:51;;;;;;;12.93;7.70;;;;;;;10.09;71.97;100217.13;5024777;28;20428;-72
2023/04/07 06:22:16;;;;;;;11.10;7.53;;;;;;;10.13;72.00;100222.88;5029506;28;20414;-72
2023/04/07 06:24:41;;;;;;;6.33;5.30;;;;;;;10.16;71.49;100231.38;5017875;28;20762;-72
2023/04/07 06:27:07;;;;;;;5.80;5.07;;;;;;;10.19;71.42;100233.56;5018323;28;20453;-73
2023/04/07 06:29:33;;;;;;;5.75;5.15;;;;;;;10.24;71.17;100233.63;5036262;28;20921;-72
2023/04/07 06:31:58;;;;;;;7.60;4.78;;;;;;;10.21;71.01;100223.31;5025902;28;20408;-72
2023/04/07 06:34:23;;;;;;;6.53;5.18;;;;;;;10.13;71.29;100233.72;5027335;28;20936;-73
2023/04/07 06:36:49;;;;;;;5.63;5.10;;;;;;;10.10;71.39;100226.91;5020300;28;20896;-72
2023/04/07 06:39:14;;;;;;;5.22;4.78;;;;;;;10.14;70.86;100217.22;5030658;28;20498;-74
2023/04/07 06:41:41;;;;;;;6.40;5.20;;;;;;;10.20;70.81;100212.72;5020847;28;20805;-75
2023/04/07 06:44:08;;;;;;;6.57;5.97;;;;;;;10.33;70.43;100210.50;5029202;28;20407;-75
2023/04/07 06:46:33;;;;;;;9.80;5.70;;;;;;;10.44;70.26;100219.56;5015695;28;20393;-76
2023/04/07 06:48:58;;;;;;;9.43;6.50;;;;;;;10.54;70.20;100219.72;5025190;28;21521;-74
2023/04/07 06:51:25;;;;;;;8.87;5.90;;;;;;;10.58;69.50;100223.56;5024100;28;20416;-73
2023/04/07 06:53:50;;;;;;;6.53;5.68;;;;;;;10.60;69.48;100224.16;5014829;28;20844;-73
2023/04/07 06:56:15;;;;;;;7.33;5.20;;;;;;;10.67;69.63;100227.47;5015540;28;20425;-73
2023/04/07 06:58:41;;;;;;;7.03;5.63;;;;;;;10.76;69.15;100228.69;5020264;28;20706;-74
2023/04/07 07:01:06;;;;;;;6.07;5.50;;;;;;;10.77;69.02;100226.78;5017903;28;20475;-73
2023/04/07 07:03:31;;;;;;;6.10;5.60;;;;;;;10.77;69.02;100218.66;5029092;28;20422;-73
2023/04/07 07:05:58;;;;;;;7.65;5.60;;;;;;;10.85;68.93;100219.06;5028385;28;20410;-73
2023/04/07 07:08:25;;;;;;;5.85;5.30;;;;;;;10.94;68.76;100222.13;5021372;28;20472;-73
2023/04/07 07:10:51;;;;;;;6.63;5.70;;;;;;;11.01;68.66;100225.47;5031131;28;20475;-74
2023/04/07 07:13:18;;;;;;;6.00;5.40;;;;;;;11.28;68.25;100225.50;5021407;28;20464;-73
2023/04/07 07:15:43;;;;;;;5.90;5.03;;;;;;;11.50;67.38;100225.44;5029703;28;20478;-73
2023/04/07 07:18:08;;;;;;;7.37;5.80;;;;;;;11.53;67.43;100227.66;5014106;28;20522;-73
2023/04/07 07:20:34;;;;;;;6.55;5.68;;;;;;;11.49;67.24;100230.06;5020982;28;20871;-74
2023/04/07 07:22:59;;;;;;;8.00;5.20;;;;;;;11.43;67.49;100225.66;5028902;28;20407;-74
2023/04/07 07:25:27;;;;;;;7.18;5.35;;;;;;;11.36;67.71;100220.44;5018603;28;20950;-74
2023/04/07 07:27:52;;;;;;;5.63;5.07;;;;;;;11.30;68.05;100234.19;5028758;28;20490;-74
2023/04/07 07:30:20;;;;;;;5.33;4.83;;;;;;;11.27;68.15;100219.25;5029102;28;20418;-74
2023/04/07 07:32:45;;;;;;;6.20;5.60;;;;;;;11.33;68.14;100229.09;5039213;28;20403;-74
2023/04/07 07:35:10;;;;;;;7.63;5.53;;;;;;;11.37;68.05;100222.06;5019130;28;20759;-74
2023/04/07 07:37:35;;;;;;;6.60;6.00;;;;;;;11.43;68.02;100221.06;5030541;28;20487;-75
2023/04/07 07:40:01;;;;;;;5.87;5.37;;;;;;;11.49;67.79;100223.84;5023503;28;20910;-75
2023/04/07 07:42:26;;;;;;;8.90;5.63;;;;;;;11.53;67.73;100230.34;5029414;28;20460;-75
2023/04/07 07:44:51;;;;;;;6.53;5.50;;;;;;;11.60;67.57;100233.69;5028620;28;20449;-73
2023/04/07 07:47:17;;;;;;;7.23;5.63;;;;;;;11.63;67.54;100230.47;5029137;28;20939;-74
2023/04/07 07:49:42;;;;;;;6.18;5.13;;;;;;;11.73;67.34;100228.69;5031861;28;20419;-74
2023/04/07 07:52:07;;;;;;;5.97;5.20;;;;;;;11.86;67.08;100230.97;5027682;28;20401;-74
2023/04/07 07:54:32;;;;;;;6.07;5.07;;;;;;;11.96;66.81;100233.78;5032277;28;20875;-74
2023/04/07 07:56:58;;;;;;;5.00;4.60;;;;;;;12.06;66.57;100241.19;5019782;28;20499;-74
2023/04/07 07:59:23;;;;;;;5.25;4.75;;;;;;;12.28;66.14;100238.38;5016936;28;20423;-74
2023/04/07 08:01:49;;;;;;;7.80;5.67;;;;;;;12.47;65.68;100234.97;5026606;28;20399;-74
2023/04/07 08:04:14;;;;;;;6.18;5.60;;;;;;;12.68;65.22;100240.53;5020914;28;20410;-73
2023/04/07 08:06:40;;;;;;;5.53;4.78;;;;;;;12.83;64.42;100235.16;5026756;28;20814;-73
2023/04/07 08:09:06;;;;;;;7.75;4.97;;;;;;;12.91;64.35;100245.50;5031461;28;20404;-73
2023/04/07 08:11:31;;;;;;;5.43;4.53;;;;;;;13.17;63.69;100244.56;5025980;28;20407;-74
2023/04/07 08:13:56;;;;;;;4.77;4.00;;;;;;;13.20;63.06;100249.50;5030697;28;20451;-73
2023/04/07 08:16:22;;;;;;;6.43;4.50;;;;;;;13.27;62.40;100246.53;5019128;28;20393;-74
2023/04/07 08:18:47;;;;;;;5.73;4.33;;;;;;;13.29;62.18;100244.34;5027423;28;20835;-74
2023/04/07 08:21:13;;;;;;;5.77;5.07;;;;;;;13.26;61.96;100242.16;5025371;28;20403;-74
2023/04/07 08:23:38;;;;;;;7.33;5.00;;;;;;;13.19;62.40;100247.84;5017243;28;20481;-74
2023/04/07 08:26:03;;;;;;;5.60;5.00;;;;;;;13.28;61.97;100248.13;5017647;28;20416;-74
2023/04/07 08:28:29;;;;;;;3.90;3.60;;;;;;;13.30;62.01;100246.00;5026456;28;20408;-74
2023/04/07 08:30:57;;;;;;;4.57;3.83;;;;;;;13.22;62.26;100250.03;5022175;28;20494;-73
2023/04/07 08:33:23;;;;;;;6.55;4.05;;;;;;;13.21;62.28;100253.00;5020127;28;20399;-74
2023/04/07 08:35:48;;;;;;;6.60;4.70;;;;;;;13.19;62.30;100258.75;5022365;28;20473;-74
2023/04/07 08:38:13;;;;;;;4.53;3.45;;;;;;;13.20;62.17;100254.94;5016736;28;20884;-75
2023/04/07 08:40:39;;;;;;;7.57;4.40;;;;;;;13.33;61.72;100259.06;5038985;28;20414;-74
2023/04/07 08:43:08;;;;;;;10.60;5.57;;;;;;;13.34;61.22;100264.22;5028604;28;20410;-75
2023/04/07 08:45:35;;;;;;;4.93;4.43;;;;;;;13.18;61.71;100267.97;5036644;28;20522;-75
2023/04/07 08:48:07;;;;;;;7.47;4.65;;;;;;;13.09;61.80;100266.84;5019532;28;20461;-75
2023/04/07 08:50:33;;;;;;;7.93;5.50;;;;;;;13.02;62.27;100274.41;5031717;28;20415;-75
2023/04/07 08:53:05;;;;;;;6.78;4.97;;;;;;;13.01;62.80;100268.16;5026743;28;20443;-75
2023/04/07 08:55:30;;;;;;;6.82;4.82;;;;;;;13.01;62.46;100268.16;5027213;28;20412;-75
2023/04/07 08:57:56;;;;;;;5.20;4.07;;;;;;;12.90;62.53;100273.81;5030504;28;20407;-75
2023/04/07 09:00:22;;;;;;;6.00;4.90;;;;;;;12.90;62.38;100274.63;5027035;28;20427;-75
2023/04/07 09:02:48;;;;;;;4.72;3.92;;;;;;;12.90;62.54;100280.09;5013898;28;20483;-75
2023/04/07 09:05:14;;;;;;;5.78;4.30;;;;;;;12.83;62.29;100282.22;5021697;28;20421;-75
2023/04/07 09:07:39;;;;;;;6.40;4.43;;;;;;;12.83;62.64;100281.41;5015487;28;20396;-75
2023/04/07 09:10:06;;;;;;;8.03;4.93;;;;;;;13.37;61.81;100277.28;5028896;28;20900;-75
2023/04/07 09:12:32;;;;;;;6.07;4.13;;;;;;;14.26;59.49;100278.81;5043346;28;20389;-75
2023/04/07 09:14:58;;;;;;;6.93;4.60;;;;;;;15.18;56.94;100281.03;5022085;28;20451;-75
2023/04/07 09:17:25;;;;;;;4.70;4.30;;;;;;;15.70;54.93;100279.75;5011719;28;20389;-75
2023/04/07 09:19:54;;;;;;;7.28;4.13;;;;;;;15.71;54.60;100273.97;5027780;28;20415;-75
2023/04/07 09:22:41;;;;;;;7.78;4.13;;;;;;;15.54;55.12;100282.53;5029741;28;20404;-75
2023/04/07 09:25:13;;;;;;;4.40;4.00;;;;;;;15.46;55.88;100279.56;5039030;28;20789;-75
2023/04/07 09:27:39;;;;;;;4.03;3.63;;;;;;;15.86;54.71;100281.28;5030530;28;20396;-75
2023/04/07 09:30:13;;;;;;;4.97;3.70;;;;;;;15.83;54.39;100282.66;5033994;28;20504;-75
2023/04/07 09:32:40;;;;;;;4.95;2.90;;;;;;;16.23;53.62;100284.28;5025835;28;20377;-75
2023/04/07 09:35:06;;;;;;;5.45;3.03;;;;;;;16.53;52.39;100283.19;5044221;28;20387;-75
2023/04/07 09:37:31;;;;;;;4.63;4.22;;;;;;;16.10;52.94;100282.19;5024901;28;20421;-75
2023/04/07 09:39:57;;;;;;;7.10;3.70;;;;;;;15.92;53.48;100280.13;5037334;28;20451;-75
2023/04/07 09:42:22;;;;;;;5.67;3.50;;;;;;;16.51;52.14;100288.94;5036041;28;20408;-75
2023/04/07 09:44:47;;;;;;;5.13;3.40;;;;;;;16.87;51.40;100289.41;5015446;28;20444;-75
2023/04/07 09:47:13;;;;;;;4.85;3.33;;;;;;;17.43;50.04;100283.25;5046692;28;20881;-75
2023/04/07 09:49:53;;;;;;;3.53;3.20;;;;;;;17.01;50.46;100284.88;5018952;28;20737;-75
2023/04/07 09:52:22;;;;;;;5.15;3.35;;;;;;;17.00;50.29;100282.41;5040305;28;20404;-75
2023/04/07 09:54:48;;;;;;;5.13;3.10;;;;;;;16.88;50.62;100288.31;5024471;28;20441;-75
2023/04/07 09:57:13;;;;;;;5.27;3.37;;;;;;;17.47;50.08;100276.91;5035174;28;20446;-75
2023/04/07 09:59:43;;;;;;;6.45;2.90;;;;;;;18.21;47.41;100283.47;5002463;28;20411;-75
2023/04/07 10:02:10;;;;;;;1999.90;999.90;;;;;;;18.09;46.50;100278.47;5030235;28;20384;-75
2023/04/07 10:04:36;;;;;;;1999.90;914.65;;;;;;;18.86;44.74;100276.06;5015072;28;20416;-75
2023/04/07 10:07:02;;;;;;;1999.90;999.90;;;;;;;19.17;44.72;100277.06;5027421;28;20436;-75
2023/04/07 10:09:29;;;;;;;1999.90;999.90;;;;;;;20.62;42.59;100285.00;5034120;28;20482;-75
2023/04/07 10:11:57;;;;;;;1999.90;999.90;;;;;;;21.90;40.36;100277.50;5032912;28;20460;-75
2023/04/07 10:14:27;;;;;;;1999.90;999.90;;;;;;;23.11;37.99;100281.63;5036199;28;20476;-75
2023/04/07 10:16:53;;;;;;;1999.90;967.30;;;;;;;23.90;36.07;100283.59;5046272;28;20410;-75
2023/04/07 10:19:19;;;;;;;25.10;22.67;;;;;;;23.56;35.92;100291.00;5019735;28;20411;-75
2023/04/07 10:21:49;;;;;;;4.00;2.63;;;;;;;23.39;35.72;100287.47;5025740;28;20405;-75
2023/04/07 10:24:28;;;;;;;4.27;3.33;;;;;;;21.41;38.97;100285.00;5028080;28;20477;-75
2023/04/07 10:27:01;;;;;;;4.87;3.10;;;;;;;20.20;41.46;100288.25;5018337;28;20412;-75
2023/04/07 10:29:30;;;;;;;5.38;2.58;;;;;;;19.81;41.80;100290.84;5042168;28;20494;-75
2023/04/07 10:31:58;;;;;;;2.97;2.67;;;;;;;19.67;42.77;100286.19;5042442;28;20391;-76
2023/04/07 10:34:47;;;;;;;5.18;2.67;;;;;;;20.98;40.46;100287.59;5024864;28;20489;-75
2023/04/07 10:37:17;;;;;;;3.60;2.30;;;;;;;21.05;39.47;100287.94;5022606;28;20958;-75
2023/04/07 10:39:44;;;;;;;4.00;2.35;;;;;;;20.17;40.24;100284.19;5034361;28;20426;-76
2023/04/07 10:42:40;;;;;;;3.70;2.42;;;;;;;19.97;40.82;100278.34;5023468;28;20404;-75
2023/04/07 10:45:08;;;;;;;4.17;2.47;;;;;;;19.32;41.71;100283.38;5022714;28;20880;-74
2023/04/07 10:47:54;;;;;;;5.03;2.15;;;;;;;18.84;42.86;100282.94;5027054;28;20480;-73
2023/04/07 10:50:22;;;;;;;3.20;2.30;;;;;;;18.93;43.27;100287.47;5027363;28;20415;-74
2023/04/07 10:53:03;;;;;;;3.03;2.38;;;;;;;19.22;42.63;100287.16;5027956;28;20405;-73
2023/04/07 10:55:36;;;;;;;6.07;2.17;;;;;;;19.21;42.40;100277.28;5019645;28;20466;-74
2023/04/07 10:58:23;;;;;;;3.53;2.30;;;;;;;19.31;42.33;100279.81;5045024;28;20881;-73
2023/04/07 11:01:08;;;;;;;5.32;2.33;;;;;;;19.64;41.59;100281.31;5026351;28;20412;-73
2023/04/07 11:03:41;;;;;;;4.40;1.80;;;;;;;23.05;35.62;100278.22;5038849;28;20732;-73
2023/04/07 11:06:08;;;;;;;6.40;2.22;;;;;;;25.73;31.23;100278.09;5021517;28;20955;-74
2023/04/07 11:08:34;;;;;;;3.78;1.40;;;;;;;24.79;31.14;100280.97;5022535;28;20412;-72
2023/04/07 11:10:59;;;;;;;3.13;1.58;;;;;;;22.59;34.30;100286.50;5030820;28;20402;-73
2023/04/07 11:13:26;;;;;;;4.00;1.77;;;;;;;21.94;35.49;100282.03;5026407;28;20395;-73
2023/04/07 11:15:51;;;;;;;4.65;2.15;;;;;;;21.51;36.37;100272.84;5028116;28;20407;-73
2023/04/07 11:18:22;;;;;;;4.00;1.90;;;;;;;20.69;37.79;100271.59;5018958;28;20412;-73
2023/04/07 11:20:53;;;;;;;4.30;1.80;;;;;;;19.97;38.34;100275.59;5019293;28;20421;-73
2023/04/07 11:23:20;;;;;;;4.82;2.00;;;;;;;19.95;38.82;100273.19;5014021;28;20400;-75